sensor_id;sensor_type;location;lat;lon;timestamp;P1;durP1;ratioP1;P2;durP2;ratioP2
49384;SDS011;36795;45.028;38.968;2022-09-20T00:02:43;18.75;;;3.97;;
49384;SDS011;36795;45.028;38.968;2022-09-20T00:05:31;15.73;;;3.70;;
49384;SDS011;36795;45.028;38.968;2022-09-20T00:08:19;14.65;;;3.47;;
49384;SDS011;36795;45.028;38.968;2022-09-20T00:11:16;16.23;;;3.75;;
49384;SDS011;36795;45.028;38.968;2022-09-20T00:14:03;15.77;;;3.80;;
49384;SDS011;36795;45.028;38.968;2022-09-20T00:16:53;15.68;;;3.17;;
49384;SDS011;36795;45.028;38.968;2022-09-20T00:19:38;20.60;;;3.92;;
49384;SDS011;36795;45.028;38.968;2022-09-20T00:22:25;18.30;;;3.42;;
49384;SDS011;36795;45.028;38.968;2022-09-20T00:25:11;15.77;;;4.00;;
49384;SDS011;36795;45.028;38.968;2022-09-20T00:27:57;14.20;;;3.75;;
49384;SDS011;36795;45.028;38.968;2022-09-20T00:30:43;15.82;;;3.25;;
49384;SDS011;36795;45.028;38.968;2022-09-20T00:33:30;14.68;;;3.40;;
49384;SDS011;36795;45.028;38.968;2022-09-20T00:36:34;14.32;;;3.08;;
49384;SDS011;36795;45.028;38.968;2022-09-20T00:39:20;13.43;;;3.42;;
49384;SDS011;36795;45.028;38.968;2022-09-20T00:42:09;17.60;;;3.65;;
49384;SDS011;36795;45.028;38.968;2022-09-20T00:44:58;18.25;;;3.80;;
49384;SDS011;36795;45.028;38.968;2022-09-20T00:50:54;17.37;;;3.62;;
49384;SDS011;36795;45.028;38.968;2022-09-20T00:53:52;15.90;;;3.40;;
49384;SDS011;36795;45.028;38.968;2022-09-20T00:56:40;15.95;;;3.83;;
49384;SDS011;36795;45.028;38.968;2022-09-20T00:59:32;13.43;;;3.30;;
49384;SDS011;36795;45.028;38.968;2022-09-20T01:02:25;19.73;;;4.18;;
49384;SDS011;36795;45.028;38.968;2022-09-20T01:05:14;12.93;;;3.33;;
49384;SDS011;36795;45.028;38.968;2022-09-20T01:08:02;18.95;;;3.75;;
49384;SDS011;36795;45.028;38.968;2022-09-20T01:10:49;16.67;;;3.58;;
49384;SDS011;36795;45.028;38.968;2022-09-20T01:13:36;15.20;;;3.80;;
49384;SDS011;36795;45.028;38.968;2022-09-20T01:16:22;16.10;;;3.37;;
49384;SDS011;36795;45.028;38.968;2022-09-20T01:19:18;16.52;;;3.58;;
49384;SDS011;36795;45.028;38.968;2022-09-20T01:25:25;14.13;;;3.10;;
49384;SDS011;36795;45.028;38.968;2022-09-20T01:28:45;15.18;;;3.53;;
49384;SDS011;36795;45.028;38.968;2022-09-20T01:31:35;17.95;;;3.97;;
49384;SDS011;36795;45.028;38.968;2022-09-20T01:37:26;20.95;;;3.47;;
49384;SDS011;36795;45.028;38.968;2022-09-20T01:40:55;11.98;;;2.85;;
49384;SDS011;36795;45.028;38.968;2022-09-20T01:46:31;17.90;;;3.87;;
49384;SDS011;36795;45.028;38.968;2022-09-20T01:49:36;17.75;;;3.33;;
49384;SDS011;36795;45.028;38.968;2022-09-20T01:56:09;13.27;;;3.62;;
49384;SDS011;36795;45.028;38.968;2022-09-20T01:59:30;15.10;;;3.60;;
49384;SDS011;36795;45.028;38.968;2022-09-20T02:25:30;20.30;;;4.18;;
49384;SDS011;36795;45.028;38.968;2022-09-20T02:28:39;13.82;;;3.50;;
49384;SDS011;36795;45.028;38.968;2022-09-20T02:35:06;18.67;;;3.95;;
49384;SDS011;36795;45.028;38.968;2022-09-20T02:50:34;15.52;;;3.80;;
49384;SDS011;36795;45.028;38.968;2022-09-20T02:53:50;13.80;;;3.25;;
49384;SDS011;36795;45.028;38.968;2022-09-20T03:03:16;16.83;;;3.87;;
49384;SDS011;36795;45.028;38.968;2022-09-20T03:09:29;20.73;;;3.97;;
49384;SDS011;36795;45.028;38.968;2022-09-20T03:12:32;14.52;;;3.60;;
49384;SDS011;36795;45.028;38.968;2022-09-20T03:28:43;19.30;;;4.50;;
49384;SDS011;36795;45.028;38.968;2022-09-20T03:41:00;20.80;;;3.70;;
49384;SDS011;36795;45.028;38.968;2022-09-20T04:03:59;19.00;;;3.67;;
49384;SDS011;36795;45.028;38.968;2022-09-20T04:22:10;23.05;;;4.47;;
49384;SDS011;36795;45.028;38.968;2022-09-20T04:25:32;20.40;;;4.40;;
49384;SDS011;36795;45.028;38.968;2022-09-20T04:28:16;19.73;;;3.70;;
49384;SDS011;36795;45.028;38.968;2022-09-20T04:34:32;23.52;;;4.35;;
49384;SDS011;36795;45.028;38.968;2022-09-20T04:37:41;18.23;;;4.05;;
49384;SDS011;36795;45.028;38.968;2022-09-20T04:50:07;207.02;;;23.08;;
49384;SDS011;36795;45.028;38.968;2022-09-20T05:06:54;18.00;;;3.97;;
49384;SDS011;36795;45.028;38.968;2022-09-20T05:29:39;17.20;;;4.25;;
49384;SDS011;36795;45.028;38.968;2022-09-20T05:32:56;19.00;;;4.30;;
49384;SDS011;36795;45.028;38.968;2022-09-20T06:05:15;13.90;;;2.90;;
49384;SDS011;36795;45.028;38.968;2022-09-20T06:08:34;14.18;;;3.00;;
49384;SDS011;36795;45.028;38.968;2022-09-20T06:14:46;14.50;;;2.83;;
49384;SDS011;36795;45.028;38.968;2022-09-20T06:17:54;19.48;;;3.75;;
49384;SDS011;36795;45.028;38.968;2022-09-20T06:21:08;15.63;;;2.72;;
49384;SDS011;36795;45.028;38.968;2022-09-20T06:24:29;14.48;;;3.05;;
49384;SDS011;36795;45.028;38.968;2022-09-20T06:27:29;15.52;;;2.55;;
49384;SDS011;36795;45.028;38.968;2022-09-20T06:30:39;12.13;;;2.55;;
49384;SDS011;36795;45.028;38.968;2022-09-20T06:33:30;9.75;;;2.45;;
49384;SDS011;36795;45.028;38.968;2022-09-20T06:39:37;13.70;;;2.55;;
49384;SDS011;36795;45.028;38.968;2022-09-20T06:42:50;15.90;;;2.35;;
49384;SDS011;36795;45.028;38.968;2022-09-20T06:45:42;17.40;;;3.87;;
49384;SDS011;36795;45.028;38.968;2022-09-20T06:48:29;13.77;;;2.72;;
49384;SDS011;36795;45.028;38.968;2022-09-20T06:51:15;12.52;;;2.72;;
49384;SDS011;36795;45.028;38.968;2022-09-20T06:54:02;13.32;;;2.35;;
49384;SDS011;36795;45.028;38.968;2022-09-20T06:56:49;11.45;;;2.40;;
49384;SDS011;36795;45.028;38.968;2022-09-20T06:59:36;12.25;;;2.85;;
49384;SDS011;36795;45.028;38.968;2022-09-20T07:02:22;12.02;;;3.28;;
49384;SDS011;36795;45.028;38.968;2022-09-20T07:05:15;14.10;;;2.72;;
49384;SDS011;36795;45.028;38.968;2022-09-20T07:08:01;12.02;;;2.80;;
49384;SDS011;36795;45.028;38.968;2022-09-20T07:10:48;12.55;;;2.35;;
49384;SDS011;36795;45.028;38.968;2022-09-20T07:13:35;13.77;;;3.37;;
49384;SDS011;36795;45.028;38.968;2022-09-20T07:16:21;8.07;;;2.47;;
49384;SDS011;36795;45.028;38.968;2022-09-20T07:19:07;13.23;;;3.10;;
49384;SDS011;36795;45.028;38.968;2022-09-20T07:21:53;16.40;;;2.60;;
49384;SDS011;36795;45.028;38.968;2022-09-20T07:24:39;13.38;;;2.67;;
49384;SDS011;36795;45.028;38.968;2022-09-20T07:27:27;10.32;;;2.28;;
49384;SDS011;36795;45.028;38.968;2022-09-20T07:30:13;9.60;;;2.67;;
49384;SDS011;36795;45.028;38.968;2022-09-20T07:33:00;17.25;;;3.00;;
49384;SDS011;36795;45.028;38.968;2022-09-20T07:35:47;13.55;;;3.05;;
49384;SDS011;36795;45.028;38.968;2022-09-20T07:38:34;12.82;;;2.92;;
49384;SDS011;36795;45.028;38.968;2022-09-20T07:41:19;12.10;;;2.85;;
49384;SDS011;36795;45.028;38.968;2022-09-20T07:44:07;14.40;;;2.42;;
49384;SDS011;36795;45.028;38.968;2022-09-20T07:47:11;13.40;;;2.55;;
49384;SDS011;36795;45.028;38.968;2022-09-20T07:49:59;14.45;;;2.60;;
49384;SDS011;36795;45.028;38.968;2022-09-20T07:52:45;14.45;;;2.85;;
49384;SDS011;36795;45.028;38.968;2022-09-20T07:55:32;11.63;;;3.00;;
49384;SDS011;36795;45.028;38.968;2022-09-20T07:58:18;17.58;;;3.10;;
49384;SDS011;36795;45.028;38.968;2022-09-20T08:01:05;13.85;;;2.65;;
49384;SDS011;36795;45.028;38.968;2022-09-20T08:03:53;13.02;;;2.60;;
49384;SDS011;36795;45.028;38.968;2022-09-20T08:06:41;12.02;;;3.10;;
49384;SDS011;36795;45.028;38.968;2022-09-20T08:09:32;15.23;;;3.53;;
49384;SDS011;36795;45.028;38.968;2022-09-20T08:12:17;13.25;;;2.97;;
49384;SDS011;36795;45.028;38.968;2022-09-20T08:15:04;15.40;;;2.95;;
49384;SDS011;36795;45.028;38.968;2022-09-20T08:17:50;12.68;;;3.08;;
49384;SDS011;36795;45.028;38.968;2022-09-20T08:20:37;11.73;;;2.78;;
49384;SDS011;36795;45.028;38.968;2022-09-20T08:23:23;12.32;;;2.67;;
49384;SDS011;36795;45.028;38.968;2022-09-20T08:26:11;12.73;;;2.95;;
49384;SDS011;36795;45.028;38.968;2022-09-20T08:28:58;17.40;;;3.03;;
49384;SDS011;36795;45.028;38.968;2022-09-20T08:31:45;14.87;;;3.17;;
49384;SDS011;36795;45.028;38.968;2022-09-20T08:34:31;15.60;;;2.97;;
49384;SDS011;36795;45.028;38.968;2022-09-20T08:37:18;12.25;;;2.80;;
49384;SDS011;36795;45.028;38.968;2022-09-20T08:40:03;15.02;;;3.12;;
49384;SDS011;36795;45.028;38.968;2022-09-20T08:42:50;13.93;;;2.95;;
49384;SDS011;36795;45.028;38.968;2022-09-20T08:45:38;14.95;;;2.87;;
49384;SDS011;36795;45.028;38.968;2022-09-20T08:48:27;16.75;;;3.00;;
49384;SDS011;36795;45.028;38.968;2022-09-20T08:51:17;10.45;;;2.80;;
49384;SDS011;36795;45.028;38.968;2022-09-20T08:54:06;17.30;;;3.22;;
49384;SDS011;36795;45.028;38.968;2022-09-20T08:57:03;15.82;;;2.97;;
49384;SDS011;36795;45.028;38.968;2022-09-20T08:59:58;17.05;;;3.15;;
49384;SDS011;36795;45.028;38.968;2022-09-20T09:02:44;13.05;;;3.10;;
49384;SDS011;36795;45.028;38.968;2022-09-20T09:08:37;14.10;;;3.12;;
49384;SDS011;36795;45.028;38.968;2022-09-20T09:11:24;16.40;;;3.08;;
49384;SDS011;36795;45.028;38.968;2022-09-20T09:14:11;14.57;;;3.05;;
49384;SDS011;36795;45.028;38.968;2022-09-20T09:17:34;11.00;;;2.70;;
49384;SDS011;36795;45.028;38.968;2022-09-20T09:20:20;14.38;;;3.28;;
49384;SDS011;36795;45.028;38.968;2022-09-20T09:23:08;12.18;;;3.83;;
49384;SDS011;36795;45.028;38.968;2022-09-20T09:26:14;12.45;;;3.08;;
49384;SDS011;36795;45.028;38.968;2022-09-20T09:32:13;16.25;;;3.72;;
49384;SDS011;36795;45.028;38.968;2022-09-20T09:35:38;14.20;;;3.20;;
49384;SDS011;36795;45.028;38.968;2022-09-20T09:38:21;16.52;;;3.80;;
49384;SDS011;36795;45.028;38.968;2022-09-20T09:41:29;20.30;;;3.78;;
49384;SDS011;36795;45.028;38.968;2022-09-20T09:44:23;20.60;;;4.10;;
49384;SDS011;36795;45.028;38.968;2022-09-20T09:47:20;17.02;;;3.60;;
49384;SDS011;36795;45.028;38.968;2022-09-20T09:50:19;15.23;;;3.87;;
49384;SDS011;36795;45.028;38.968;2022-09-20T09:53:22;15.77;;;3.33;;
49384;SDS011;36795;45.028;38.968;2022-09-20T09:59:03;17.17;;;4.32;;
49384;SDS011;36795;45.028;38.968;2022-09-20T10:08:32;14.15;;;3.75;;
49384;SDS011;36795;45.028;38.968;2022-09-20T10:14:43;16.15;;;3.85;;
49384;SDS011;36795;45.028;38.968;2022-09-20T10:21:14;16.95;;;4.20;;
49384;SDS011;36795;45.028;38.968;2022-09-20T10:24:26;16.75;;;3.80;;
49384;SDS011;36795;45.028;38.968;2022-09-20T10:27:27;14.57;;;3.50;;
49384;SDS011;36795;45.028;38.968;2022-09-20T10:30:29;18.42;;;4.55;;
49384;SDS011;36795;45.028;38.968;2022-09-20T10:37:09;18.98;;;3.90;;
49384;SDS011;36795;45.028;38.968;2022-09-20T10:39:55;20.08;;;4.30;;
49384;SDS011;36795;45.028;38.968;2022-09-20T10:42:53;16.77;;;4.28;;
49384;SDS011;36795;45.028;38.968;2022-09-20T10:49:03;15.98;;;4.03;;
49384;SDS011;36795;45.028;38.968;2022-09-20T10:55:12;19.48;;;4.90;;
49384;SDS011;36795;45.028;38.968;2022-09-20T11:10:53;28.93;;;4.87;;
49384;SDS011;36795;45.028;38.968;2022-09-20T11:22:54;20.75;;;4.20;;
49384;SDS011;36795;45.028;38.968;2022-09-20T11:25:46;20.02;;;4.20;;
49384;SDS011;36795;45.028;38.968;2022-09-20T11:28:37;19.30;;;4.50;;
49384;SDS011;36795;45.028;38.968;2022-09-20T11:31:35;17.85;;;3.85;;
49384;SDS011;36795;45.028;38.968;2022-09-20T11:34:30;17.10;;;4.35;;
49384;SDS011;36795;45.028;38.968;2022-09-20T11:37:38;18.77;;;4.65;;
49384;SDS011;36795;45.028;38.968;2022-09-20T11:40:35;25.77;;;6.28;;
49384;SDS011;36795;45.028;38.968;2022-09-20T11:43:25;20.88;;;4.50;;
49384;SDS011;36795;45.028;38.968;2022-09-20T11:49:51;19.20;;;4.53;;
49384;SDS011;36795;45.028;38.968;2022-09-20T11:52:54;12.65;;;3.60;;
49384;SDS011;36795;45.028;38.968;2022-09-20T11:58:50;18.50;;;4.32;;
49384;SDS011;36795;45.028;38.968;2022-09-20T12:01:40;14.87;;;3.47;;
49384;SDS011;36795;45.028;38.968;2022-09-20T12:04:29;16.62;;;3.95;;
49384;SDS011;36795;45.028;38.968;2022-09-20T12:10:19;22.13;;;4.10;;
49384;SDS011;36795;45.028;38.968;2022-09-20T12:13:23;16.67;;;3.78;;
49384;SDS011;36795;45.028;38.968;2022-09-20T12:16:14;15.00;;;3.90;;
49384;SDS011;36795;45.028;38.968;2022-09-20T12:19:02;14.87;;;3.67;;
49384;SDS011;36795;45.028;38.968;2022-09-20T12:24:43;14.00;;;3.53;;
49384;SDS011;36795;45.028;38.968;2022-09-20T12:30:20;17.35;;;3.47;;
49384;SDS011;36795;45.028;38.968;2022-09-20T12:33:17;19.70;;;3.80;;
49384;SDS011;36795;45.028;38.968;2022-09-20T12:36:15;23.23;;;4.82;;
49384;SDS011;36795;45.028;38.968;2022-09-20T12:42:32;19.37;;;4.28;;
49384;SDS011;36795;45.028;38.968;2022-09-20T12:45:19;23.35;;;6.25;;
49384;SDS011;36795;45.028;38.968;2022-09-20T12:48:14;18.77;;;5.65;;
49384;SDS011;36795;45.028;38.968;2022-09-20T12:51:16;20.40;;;3.92;;
49384;SDS011;36795;45.028;38.968;2022-09-20T12:54:27;19.12;;;4.03;;
49384;SDS011;36795;45.028;38.968;2022-09-20T12:57:23;16.12;;;4.15;;
49384;SDS011;36795;45.028;38.968;2022-09-20T13:00:26;19.00;;;4.25;;
49384;SDS011;36795;45.028;38.968;2022-09-20T13:03:22;15.90;;;3.92;;
49384;SDS011;36795;45.028;38.968;2022-09-20T13:11:50;22.65;;;4.40;;
49384;SDS011;36795;45.028;38.968;2022-09-20T13:14:41;23.85;;;5.07;;
49384;SDS011;36795;45.028;38.968;2022-09-20T13:17:32;22.65;;;4.55;;
49384;SDS011;36795;45.028;38.968;2022-09-20T13:20:22;19.30;;;4.43;;
49384;SDS011;36795;45.028;38.968;2022-09-20T13:23:28;20.80;;;4.93;;
49384;SDS011;36795;45.028;38.968;2022-09-20T13:26:18;21.80;;;4.53;;
49384;SDS011;36795;45.028;38.968;2022-09-20T13:29:08;20.17;;;4.80;;
49384;SDS011;36795;45.028;38.968;2022-09-20T13:32:26;18.58;;;4.80;;
49384;SDS011;36795;45.028;38.968;2022-09-20T13:35:23;23.15;;;4.60;;
49384;SDS011;36795;45.028;38.968;2022-09-20T13:38:16;21.30;;;4.57;;
49384;SDS011;36795;45.028;38.968;2022-09-20T13:41:09;20.30;;;4.55;;
49384;SDS011;36795;45.028;38.968;2022-09-20T13:43:55;20.52;;;4.70;;
49384;SDS011;36795;45.028;38.968;2022-09-20T13:46:42;19.02;;;4.03;;
49384;SDS011;36795;45.028;38.968;2022-09-20T13:49:30;19.98;;;4.80;;
49384;SDS011;36795;45.028;38.968;2022-09-20T13:52:23;22.15;;;4.40;;
49384;SDS011;36795;45.028;38.968;2022-09-20T13:55:25;22.20;;;4.30;;
49384;SDS011;36795;45.028;38.968;2022-09-20T14:01:04;23.42;;;5.60;;
49384;SDS011;36795;45.028;38.968;2022-09-20T14:04:07;26.15;;;6.35;;
49384;SDS011;36795;45.028;38.968;2022-09-20T14:06:59;27.62;;;8.27;;
49384;SDS011;36795;45.028;38.968;2022-09-20T14:09:51;29.42;;;8.68;;
49384;SDS011;36795;45.028;38.968;2022-09-20T14:12:37;25.85;;;8.75;;
49384;SDS011;36795;45.028;38.968;2022-09-20T14:15:25;30.30;;;10.02;;
49384;SDS011;36795;45.028;38.968;2022-09-20T14:18:16;27.42;;;10.25;;
49384;SDS011;36795;45.028;38.968;2022-09-20T14:21:08;29.37;;;8.52;;
49384;SDS011;36795;45.028;38.968;2022-09-20T14:23:57;28.17;;;9.50;;
49384;SDS011;36795;45.028;38.968;2022-09-20T14:27:17;27.48;;;5.10;;
49384;SDS011;36795;45.028;38.968;2022-09-20T14:30:05;24.45;;;5.78;;
49384;SDS011;36795;45.028;38.968;2022-09-20T14:33:17;21.80;;;5.32;;
49384;SDS011;36795;45.028;38.968;2022-09-20T14:36:04;25.10;;;4.97;;
49384;SDS011;36795;45.028;38.968;2022-09-20T14:39:04;65.37;;;48.00;;
49384;SDS011;36795;45.028;38.968;2022-09-20T14:41:59;35.35;;;11.43;;
49384;SDS011;36795;45.028;38.968;2022-09-20T14:44:49;40.30;;;14.38;;
49384;SDS011;36795;45.028;38.968;2022-09-20T14:47:38;33.92;;;11.30;;
49384;SDS011;36795;45.028;38.968;2022-09-20T14:50:44;43.45;;;13.27;;
49384;SDS011;36795;45.028;38.968;2022-09-20T14:53:52;40.47;;;17.35;;
49384;SDS011;36795;45.028;38.968;2022-09-20T14:56:57;38.75;;;15.02;;
49384;SDS011;36795;45.028;38.968;2022-09-20T14:59:43;46.37;;;20.95;;
49384;SDS011;36795;45.028;38.968;2022-09-20T15:02:30;53.00;;;22.87;;
49384;SDS011;36795;45.028;38.968;2022-09-20T15:05:24;46.08;;;19.67;;
49384;SDS011;36795;45.028;38.968;2022-09-20T15:08:12;40.00;;;17.10;;
49384;SDS011;36795;45.028;38.968;2022-09-20T15:10:59;30.90;;;11.90;;
49384;SDS011;36795;45.028;38.968;2022-09-20T15:13:47;29.63;;;10.48;;
49384;SDS011;36795;45.028;38.968;2022-09-20T15:16:33;29.52;;;9.85;;
49384;SDS011;36795;45.028;38.968;2022-09-20T15:19:19;33.30;;;11.90;;
49384;SDS011;36795;45.028;38.968;2022-09-20T15:22:07;41.05;;;14.93;;
49384;SDS011;36795;45.028;38.968;2022-09-20T15:24:54;37.58;;;13.32;;
49384;SDS011;36795;45.028;38.968;2022-09-20T15:27:41;32.13;;;12.52;;
49384;SDS011;36795;45.028;38.968;2022-09-20T15:30:28;33.83;;;11.35;;
49384;SDS011;36795;45.028;38.968;2022-09-20T15:33:15;31.37;;;10.90;;
49384;SDS011;36795;45.028;38.968;2022-09-20T15:36:02;29.27;;;9.55;;
49384;SDS011;36795;45.028;38.968;2022-09-20T15:38:52;31.55;;;11.02;;
49384;SDS011;36795;45.028;38.968;2022-09-20T15:41:39;28.20;;;10.27;;
49384;SDS011;36795;45.028;38.968;2022-09-20T15:44:25;31.15;;;10.38;;
49384;SDS011;36795;45.028;38.968;2022-09-20T15:47:14;32.70;;;11.73;;
49384;SDS011;36795;45.028;38.968;2022-09-20T15:49:59;31.45;;;11.02;;
49384;SDS011;36795;45.028;38.968;2022-09-20T15:52:47;30.12;;;10.00;;
49384;SDS011;36795;45.028;38.968;2022-09-20T15:55:35;30.90;;;11.38;;
49384;SDS011;36795;45.028;38.968;2022-09-20T15:58:22;32.63;;;11.75;;
49384;SDS011;36795;45.028;38.968;2022-09-20T16:01:09;34.50;;;11.65;;
49384;SDS011;36795;45.028;38.968;2022-09-20T16:03:56;34.95;;;11.85;;
49384;SDS011;36795;45.028;38.968;2022-09-20T16:06:43;34.20;;;11.82;;
49384;SDS011;36795;45.028;38.968;2022-09-20T16:09:30;35.17;;;11.57;;
49384;SDS011;36795;45.028;38.968;2022-09-20T16:12:16;28.50;;;10.48;;
49384;SDS011;36795;45.028;38.968;2022-09-20T16:15:04;27.77;;;9.98;;
49384;SDS011;36795;45.028;38.968;2022-09-20T16:17:50;28.87;;;10.15;;
49384;SDS011;36795;45.028;38.968;2022-09-20T16:21:02;28.73;;;10.38;;
49384;SDS011;36795;45.028;38.968;2022-09-20T16:23:52;32.13;;;13.15;;
49384;SDS011;36795;45.028;38.968;2022-09-20T16:26:39;29.90;;;10.93;;
49384;SDS011;36795;45.028;38.968;2022-09-20T16:29:26;35.53;;;15.50;;
49384;SDS011;36795;45.028;38.968;2022-09-20T16:32:14;35.05;;;14.93;;
49384;SDS011;36795;45.028;38.968;2022-09-20T16:35:00;35.22;;;15.95;;
49384;SDS011;36795;45.028;38.968;2022-09-20T16:37:48;33.70;;;14.13;;
49384;SDS011;36795;45.028;38.968;2022-09-20T16:40:35;31.27;;;12.88;;
49384;SDS011;36795;45.028;38.968;2022-09-20T16:43:21;38.92;;;15.75;;
49384;SDS011;36795;45.028;38.968;2022-09-20T16:46:10;39.65;;;17.95;;
49384;SDS011;36795;45.028;38.968;2022-09-20T16:48:57;39.83;;;16.23;;
49384;SDS011;36795;45.028;38.968;2022-09-20T16:51:44;39.95;;;16.33;;
49384;SDS011;36795;45.028;38.968;2022-09-20T16:54:31;41.47;;;15.23;;
49384;SDS011;36795;45.028;38.968;2022-09-20T16:57:17;39.85;;;15.02;;
49384;SDS011;36795;45.028;38.968;2022-09-20T17:00:09;43.63;;;14.82;;
49384;SDS011;36795;45.028;38.968;2022-09-20T17:02:55;33.78;;;14.40;;
49384;SDS011;36795;45.028;38.968;2022-09-20T17:05:42;37.90;;;14.63;;
49384;SDS011;36795;45.028;38.968;2022-09-20T17:08:33;45.15;;;14.60;;
49384;SDS011;36795;45.028;38.968;2022-09-20T17:11:25;36.28;;;15.10;;
49384;SDS011;36795;45.028;38.968;2022-09-20T17:14:13;45.47;;;15.90;;
49384;SDS011;36795;45.028;38.968;2022-09-20T17:17:01;42.00;;;18.17;;
49384;SDS011;36795;45.028;38.968;2022-09-20T17:19:48;39.88;;;16.50;;
49384;SDS011;36795;45.028;38.968;2022-09-20T17:22:34;41.67;;;18.70;;
49384;SDS011;36795;45.028;38.968;2022-09-20T17:25:20;43.53;;;18.55;;
49384;SDS011;36795;45.028;38.968;2022-09-20T17:28:06;42.58;;;19.60;;
49384;SDS011;36795;45.028;38.968;2022-09-20T17:30:52;43.67;;;20.55;;
49384;SDS011;36795;45.028;38.968;2022-09-20T17:33:45;45.03;;;20.92;;
49384;SDS011;36795;45.028;38.968;2022-09-20T17:36:32;45.03;;;20.00;;
49384;SDS011;36795;45.028;38.968;2022-09-20T17:39:21;43.10;;;21.42;;
49384;SDS011;36795;45.028;38.968;2022-09-20T17:42:07;42.30;;;22.40;;
49384;SDS011;36795;45.028;38.968;2022-09-20T17:44:54;45.15;;;21.65;;
49384;SDS011;36795;45.028;38.968;2022-09-20T17:47:40;44.85;;;22.55;;
49384;SDS011;36795;45.028;38.968;2022-09-20T17:50:26;53.08;;;25.35;;
49384;SDS011;36795;45.028;38.968;2022-09-20T17:53:13;50.03;;;25.25;;
49384;SDS011;36795;45.028;38.968;2022-09-20T17:55:59;43.97;;;22.85;;
49384;SDS011;36795;45.028;38.968;2022-09-20T17:58:48;46.08;;;23.25;;
49384;SDS011;36795;45.028;38.968;2022-09-20T18:01:35;46.90;;;23.17;;
49384;SDS011;36795;45.028;38.968;2022-09-20T18:04:22;44.47;;;21.80;;
49384;SDS011;36795;45.028;38.968;2022-09-20T18:07:09;39.03;;;20.12;;
49384;SDS011;36795;45.028;38.968;2022-09-20T18:09:56;41.30;;;20.15;;
49384;SDS011;36795;45.028;38.968;2022-09-20T18:12:42;43.25;;;23.62;;
49384;SDS011;36795;45.028;38.968;2022-09-20T18:15:28;37.22;;;18.25;;
49384;SDS011;36795;45.028;38.968;2022-09-20T18:18:16;38.25;;;17.08;;
49384;SDS011;36795;45.028;38.968;2022-09-20T18:21:08;38.08;;;16.55;;
49384;SDS011;36795;45.028;38.968;2022-09-20T18:23:55;32.55;;;14.52;;
49384;SDS011;36795;45.028;38.968;2022-09-20T18:26:42;33.28;;;15.50;;
49384;SDS011;36795;45.028;38.968;2022-09-20T18:29:28;30.17;;;13.80;;
49384;SDS011;36795;45.028;38.968;2022-09-20T18:32:20;35.20;;;14.07;;
49384;SDS011;36795;45.028;38.968;2022-09-20T18:35:10;36.38;;;13.98;;
49384;SDS011;36795;45.028;38.968;2022-09-20T18:37:56;35.55;;;14.48;;
49384;SDS011;36795;45.028;38.968;2022-09-20T18:40:52;30.40;;;12.88;;
49384;SDS011;36795;45.028;38.968;2022-09-20T18:43:40;31.80;;;13.10;;
49384;SDS011;36795;45.028;38.968;2022-09-20T18:46:27;33.70;;;12.48;;
49384;SDS011;36795;45.028;38.968;2022-09-20T18:49:16;30.88;;;11.73;;
49384;SDS011;36795;45.028;38.968;2022-09-20T18:52:04;32.65;;;12.20;;
49384;SDS011;36795;45.028;38.968;2022-09-20T18:54:50;29.08;;;10.60;;
49384;SDS011;36795;45.028;38.968;2022-09-20T18:57:41;31.52;;;12.15;;
49384;SDS011;36795;45.028;38.968;2022-09-20T19:00:29;31.73;;;11.68;;
49384;SDS011;36795;45.028;38.968;2022-09-20T19:03:17;31.87;;;11.38;;
49384;SDS011;36795;45.028;38.968;2022-09-20T19:06:13;28.73;;;10.60;;
49384;SDS011;36795;45.028;38.968;2022-09-20T19:09:03;30.92;;;11.07;;
49384;SDS011;36795;45.028;38.968;2022-09-20T19:11:57;28.83;;;10.27;;
49384;SDS011;36795;45.028;38.968;2022-09-20T19:14:52;29.48;;;10.25;;
49384;SDS011;36795;45.028;38.968;2022-09-20T19:27:27;28.73;;;11.82;;
49384;SDS011;36795;45.028;38.968;2022-09-20T19:30:14;38.50;;;14.87;;
49384;SDS011;36795;45.028;38.968;2022-09-20T19:33:41;36.45;;;15.77;;
49384;SDS011;36795;45.028;38.968;2022-09-20T19:37:15;42.92;;;16.77;;
49384;SDS011;36795;45.028;38.968;2022-09-20T19:43:16;36.92;;;15.50;;
49384;SDS011;36795;45.028;38.968;2022-09-20T19:46:14;40.05;;;16.58;;
49384;SDS011;36795;45.028;38.968;2022-09-20T19:52:34;41.03;;;17.65;;
49384;SDS011;36795;45.028;38.968;2022-09-20T19:55:24;38.83;;;16.00;;
49384;SDS011;36795;45.028;38.968;2022-09-20T19:58:10;36.17;;;15.63;;
49384;SDS011;36795;45.028;38.968;2022-09-20T20:00:56;37.70;;;15.57;;
49384;SDS011;36795;45.028;38.968;2022-09-20T20:03:43;38.05;;;15.70;;
49384;SDS011;36795;45.028;38.968;2022-09-20T20:06:31;36.80;;;15.38;;
49384;SDS011;36795;45.028;38.968;2022-09-20T20:09:30;36.78;;;15.60;;
49384;SDS011;36795;45.028;38.968;2022-09-20T20:12:38;34.58;;;15.18;;
49384;SDS011;36795;45.028;38.968;2022-09-20T20:15:50;37.75;;;15.70;;
49384;SDS011;36795;45.028;38.968;2022-09-20T20:21:41;36.80;;;15.35;;
49384;SDS011;36795;45.028;38.968;2022-09-20T20:24:52;41.22;;;16.23;;
49384;SDS011;36795;45.028;38.968;2022-09-20T20:27:43;34.33;;;15.55;;
49384;SDS011;36795;45.028;38.968;2022-09-20T20:30:29;37.92;;;14.77;;
49384;SDS011;36795;45.028;38.968;2022-09-20T20:33:16;33.38;;;14.18;;
49384;SDS011;36795;45.028;38.968;2022-09-20T20:36:04;42.10;;;16.25;;
49384;SDS011;36795;45.028;38.968;2022-09-20T20:38:53;35.28;;;14.07;;
49384;SDS011;36795;45.028;38.968;2022-09-20T20:41:39;32.28;;;12.13;;
49384;SDS011;36795;45.028;38.968;2022-09-20T20:44:32;29.00;;;11.27;;
49384;SDS011;36795;45.028;38.968;2022-09-20T20:47:21;33.22;;;12.00;;
49384;SDS011;36795;45.028;38.968;2022-09-20T20:50:07;29.52;;;12.02;;
49384;SDS011;36795;45.028;38.968;2022-09-20T20:52:55;29.25;;;11.63;;
49384;SDS011;36795;45.028;38.968;2022-09-20T20:55:41;35.05;;;11.30;;
49384;SDS011;36795;45.028;38.968;2022-09-20T20:58:28;28.42;;;10.38;;
49384;SDS011;36795;45.028;38.968;2022-09-20T21:01:17;26.50;;;9.82;;
49384;SDS011;36795;45.028;38.968;2022-09-20T21:04:04;26.17;;;9.93;;
49384;SDS011;36795;45.028;38.968;2022-09-20T21:06:52;29.08;;;9.18;;
49384;SDS011;36795;45.028;38.968;2022-09-20T21:09:39;28.75;;;8.90;;
49384;SDS011;36795;45.028;38.968;2022-09-20T21:12:25;22.08;;;7.62;;
49384;SDS011;36795;45.028;38.968;2022-09-20T21:15:11;26.77;;;8.13;;
49384;SDS011;36795;45.028;38.968;2022-09-20T21:17:58;22.95;;;7.00;;
49384;SDS011;36795;45.028;38.968;2022-09-20T21:20:44;21.75;;;7.37;;
49384;SDS011;36795;45.028;38.968;2022-09-20T21:23:33;22.52;;;6.85;;
49384;SDS011;36795;45.028;38.968;2022-09-20T21:26:20;24.25;;;6.28;;
49384;SDS011;36795;45.028;38.968;2022-09-20T21:29:12;24.70;;;6.05;;
49384;SDS011;36795;45.028;38.968;2022-09-20T21:31:59;22.02;;;5.78;;
49384;SDS011;36795;45.028;38.968;2022-09-20T21:34:45;20.33;;;6.12;;
49384;SDS011;36795;45.028;38.968;2022-09-20T21:37:31;21.62;;;5.80;;
49384;SDS011;36795;45.028;38.968;2022-09-20T21:40:17;23.85;;;5.97;;
49384;SDS011;36795;45.028;38.968;2022-09-20T21:43:03;24.15;;;6.60;;
49384;SDS011;36795;45.028;38.968;2022-09-20T21:45:49;24.35;;;5.85;;
49384;SDS011;36795;45.028;38.968;2022-09-20T21:48:35;19.60;;;5.10;;